Time;durP1;ratioP1;P1;durP2;ratioP2;P2;SDS_P1;SDS_P2;PMS_P1;PMS_P2;Temp;Humidity;BMP_temperature;BMP_pressure;BME280_temperature;BME280_humidity;BME280_pressure;Samples;Min_cycle;Max_cycle;Signal;HPM_P1;HPM_P2
2022/11/14 00:00:53;;;;;;;42.95;21.52;;;6.10;99.90;;;;;;5083043;28;20637;-68
2022/11/14 00:03:18;;;;;;;43.50;22.70;;;6.10;99.90;;;;;;5068992;28;20052;-67
2022/11/14 00:05:45;;;;;;;41.88;22.02;;;6.10;99.90;;;;;;5088390;28;20028;-67
2022/11/14 00:08:19;;;;;;;39.63;21.52;;;6.20;99.90;;;;;;5083954;28;20040;-67
2022/11/14 00:10:49;;;;;;;41.47;22.08;;;6.20;99.90;;;;;;5086786;28;20079;-68
2022/11/14 00:13:15;;;;;;;42.78;22.23;;;6.20;99.90;;;;;;5087060;28;20059;-67
2022/11/14 00:15:41;;;;;;;44.05;22.48;;;6.20;99.90;;;;;;5088654;28;20047;-67
2022/11/14 00:18:07;;;;;;;38.63;21.52;;;6.20;99.90;;;;;;5086259;28;20032;-68
2022/11/14 00:20:33;;;;;;;43.42;21.27;;;6.20;99.90;;;;;;5087274;28;20040;-67
2022/11/14 00:22:59;;;;;;;42.40;22.02;;;6.20;99.90;;;;;;5088920;28;20028;-68
2022/11/14 00:25:24;;;;;;;44.25;24.00;;;6.20;99.90;;;;;;5084843;28;20059;-67
2022/11/14 00:27:50;;;;;;;42.22;22.30;;;6.20;99.90;;;;;;5089682;28;20077;-67
2022/11/14 00:30:15;;;;;;;43.00;22.55;;;6.20;99.90;;;;;;5083816;28;20138;-67
2022/11/14 00:32:41;;;;;;;46.17;24.05;;;6.20;99.90;;;;;;5087635;28;20052;-67
2022/11/14 00:35:10;;;;;;;44.92;23.05;;;6.30;99.90;;;;;;5086579;28;20036;-68
2022/11/14 00:37:36;;;;;;;46.13;23.08;;;6.30;99.90;;;;;;5082872;28;20057;-68
2022/11/14 00:40:02;;;;;;;45.47;22.60;;;6.30;99.90;;;;;;5084041;27;20548;-67
2022/11/14 00:42:27;;;;;;;43.90;22.63;;;6.30;99.90;;;;;;5094287;27;20050;-68
2022/11/14 00:44:53;;;;;;;42.92;22.73;;;6.40;99.90;;;;;;5110421;27;20050;-67
2022/11/14 00:47:19;;;;;;;46.17;23.70;;;6.40;99.90;;;;;;5104423;27;20052;-67
2022/11/14 00:49:44;;;;;;;44.75;24.70;;;6.40;99.90;;;;;;5109140;28;20066;-68
2022/11/14 00:52:10;;;;;;;45.60;25.50;;;6.40;99.90;;;;;;5106275;28;20031;-67
2022/11/14 00:54:35;;;;;;;48.13;25.83;;;6.40;99.90;;;;;;5111894;27;20047;-68
2022/11/14 00:57:01;;;;;;;42.10;23.77;;;6.40;99.90;;;;;;5109065;27;20042;-67
2022/11/14 00:59:27;;;;;;;45.10;24.88;;;6.40;99.90;;;;;;5090577;28;20058;-67
2022/11/14 01:01:52;;;;;;;43.15;24.65;;;6.40;99.90;;;;;;5104090;27;20100;-67
2022/11/14 01:04:18;;;;;;;43.42;24.48;;;6.50;99.90;;;;;;5107521;28;20379;-67
2022/11/14 01:06:44;;;;;;;42.40;23.83;;;6.50;99.90;;;;;;5106920;28;20121;-67
2022/11/14 01:09:09;;;;;;;46.95;25.42;;;6.50;99.90;;;;;;5108756;28;20100;-67
2022/11/14 01:11:35;;;;;;;46.00;26.35;;;6.50;99.90;;;;;;5110142;28;20077;-67
2022/11/14 01:14:01;;;;;;;48.33;26.33;;;6.50;99.90;;;;;;5110671;28;20137;-68
2022/11/14 01:16:26;;;;;;;44.83;26.27;;;6.50;99.90;;;;;;5110715;28;20087;-67
2022/11/14 01:18:52;;;;;;;48.25;26.65;;;6.50;99.90;;;;;;5093061;28;20072;-67
2022/11/14 01:21:17;;;;;;;47.35;25.92;;;6.50;99.90;;;;;;5092769;28;20048;-68
2022/11/14 01:23:43;;;;;;;43.35;25.50;;;6.50;99.90;;;;;;5110578;28;20155;-67
2022/11/14 01:26:11;;;;;;;49.75;27.55;;;6.60;99.90;;;;;;5109630;28;20035;-67
2022/11/14 01:28:38;;;;;;;46.72;27.63;;;6.50;99.90;;;;;;5094699;28;20126;-67
2022/11/14 01:31:19;;;;;;;52.15;28.60;;;6.60;99.90;;;;;;5110499;28;20544;-67
2022/11/14 01:33:48;;;;;;;47.65;26.42;;;6.50;99.90;;;;;;5109315;28;20681;-67
2022/11/14 01:36:14;;;;;;;43.33;26.10;;;6.50;99.90;;;;;;5110416;28;20508;-68
2022/11/14 01:38:39;;;;;;;45.35;26.13;;;6.50;99.90;;;;;;5108978;28;20039;-67
2022/11/14 01:41:05;;;;;;;44.97;26.08;;;6.50;99.90;;;;;;5108255;28;20100;-68
2022/11/14 01:43:33;;;;;;;50.20;28.20;;;6.50;99.90;;;;;;5091386;28;20046;-67
2022/11/14 01:46:06;;;;;;;49.15;27.90;;;6.50;99.90;;;;;;5091029;28;20071;-68
2022/11/14 01:48:55;;;;;;;49.28;28.08;;;6.50;99.90;;;;;;5111058;28;20043;-67
2022/11/14 01:51:39;;;;;;;45.67;27.63;;;6.50;99.90;;;;;;5107404;28;20039;-67
2022/11/14 01:54:09;;;;;;;47.40;26.92;;;6.40;99.90;;;;;;5111112;28;20118;-67
2022/11/14 01:56:45;;;;;;;48.50;27.27;;;6.40;99.90;;;;;;5091763;28;20125;-68
2022/11/14 01:59:16;;;;;;;46.80;26.20;;;6.40;99.90;;;;;;5109723;28;20058;-67
2022/11/14 02:01:46;;;;;;;46.58;26.63;;;6.40;99.90;;;;;;5109553;28;20072;-68
2022/11/14 02:04:22;;;;;;;48.70;27.92;;;6.40;99.90;;;;;;5110521;27;20031;-68
2022/11/14 02:06:50;;;;;;;46.60;27.73;;;6.40;99.90;;;;;;5114293;27;20118;-67
2022/11/14 02:09:16;;;;;;;47.58;27.70;;;6.40;99.90;;;;;;5111582;27;20035;-68
2022/11/14 02:11:44;;;;;;;48.15;28.83;;;6.30;99.90;;;;;;5113665;27;20035;-67
2022/11/14 02:14:10;;;;;;;47.03;28.35;;;6.30;99.90;;;;;;5112548;27;20042;-67
2022/11/14 02:16:39;;;;;;;44.42;27.30;;;6.30;99.90;;;;;;5093374;27;20054;-67
2022/11/14 02:19:05;;;;;;;48.17;29.02;;;6.30;99.90;;;;;;5113012;27;20064;-68
2022/11/14 02:21:31;;;;;;;48.67;29.58;;;6.30;99.90;;;;;;5112525;27;20431;-68
2022/11/14 02:23:56;;;;;;;49.70;30.90;;;6.30;99.90;;;;;;5110489;27;20499;-68
2022/11/14 02:26:22;;;;;;;49.03;29.33;;;6.30;99.90;;;;;;5113648;27;20039;-68
2022/11/14 02:28:48;;;;;;;51.70;31.17;;;6.30;99.90;;;;;;5093092;27;20138;-67
2022/11/14 02:31:14;;;;;;;53.10;31.08;;;6.30;99.90;;;;;;5112366;27;20527;-67
2022/11/14 02:33:41;;;;;;;53.65;31.33;;;6.30;99.90;;;;;;5110529;27;20040;-67
2022/11/14 02:36:07;;;;;;;50.80;31.35;;;6.30;99.90;;;;;;5117438;27;20043;-68
2022/11/14 02:38:32;;;;;;;53.65;30.95;;;6.30;99.90;;;;;;5110706;27;20050;-67
2022/11/14 02:40:59;;;;;;;52.97;31.83;;;6.30;99.90;;;;;;5114209;27;20043;-67
2022/11/14 02:43:25;;;;;;;55.60;32.75;;;6.20;99.90;;;;;;5093712;27;20091;-68
2022/11/14 02:45:51;;;;;;;53.53;31.30;;;6.30;99.90;;;;;;5110856;27;20537;-67
2022/11/14 02:48:16;;;;;;;55.65;32.15;;;6.20;99.90;;;;;;5093136;27;20043;-68
2022/11/14 02:50:42;;;;;;;58.60;32.80;;;6.20;99.90;;;;;;5112503;27;20035;-68
2022/11/14 02:53:08;;;;;;;55.45;32.17;;;6.20;99.90;;;;;;5111969;27;20100;-68
2022/11/14 02:55:33;;;;;;;58.38;35.30;;;6.20;99.90;;;;;;5109965;27;20047;-67
2022/11/14 02:57:59;;;;;;;56.40;32.70;;;6.20;99.90;;;;;;5112702;27;20062;-68
2022/11/14 03:00:25;;;;;;;56.03;33.45;;;6.20;99.90;;;;;;5111156;27;20068;-68
2022/11/14 03:02:52;;;;;;;57.85;31.85;;;6.20;99.90;;;;;;5112435;27;20493;-67
2022/11/14 03:05:18;;;;;;;59.33;33.80;;;6.20;99.90;;;;;;5111615;27;20078;-67
2022/11/14 03:07:44;;;;;;;62.40;33.55;;;6.10;99.90;;;;;;5112215;27;20078;-67
2022/11/14 03:10:10;;;;;;;58.67;32.90;;;6.10;99.90;;;;;;5097563;27;20039;-67
2022/11/14 03:12:36;;;;;;;63.17;34.65;;;6.10;99.90;;;;;;5105954;27;20034;-67
2022/11/14 03:15:04;;;;;;;60.83;34.70;;;6.10;99.90;;;;;;5095816;27;20039;-68
2022/11/14 03:17:32;;;;;;;63.50;35.03;;;6.10;99.90;;;;;;5112830;27;20439;-67
2022/11/14 03:19:57;;;;;;;60.17;34.42;;;6.10;99.90;;;;;;5096690;27;20047;-68
2022/11/14 03:22:23;;;;;;;61.72;34.13;;;6.10;99.90;;;;;;5109213;27;20068;-67
2022/11/14 03:24:48;;;;;;;61.78;34.67;;;6.10;99.90;;;;;;5112529;27;20065;-68
2022/11/14 03:27:14;;;;;;;60.03;34.90;;;6.00;99.90;;;;;;5107136;27;20100;-68
2022/11/14 03:29:40;;;;;;;58.45;34.58;;;6.10;99.90;;;;;;5112009;27;20424;-67
2022/11/14 03:32:05;;;;;;;59.40;33.22;;;6.00;99.90;;;;;;5107270;27;20093;-67
2022/11/14 03:34:31;;;;;;;55.90;32.88;;;6.00;99.90;;;;;;5099972;27;20046;-68
2022/11/14 03:36:56;;;;;;;57.97;32.90;;;6.00;99.90;;;;;;5125038;27;20122;-67
2022/11/14 03:39:22;;;;;;;59.13;32.55;;;6.00;99.90;;;;;;5109840;27;20128;-67
2022/11/14 03:41:48;;;;;;;58.80;32.75;;;6.00;99.90;;;;;;5114977;27;20047;-67
2022/11/14 03:44:13;;;;;;;57.58;33.33;;;5.90;99.90;;;;;;5103580;27;20039;-67
2022/11/14 03:46:39;;;;;;;59.67;31.67;;;5.90;99.90;;;;;;5106849;27;20035;-68
2022/11/14 03:49:05;;;;;;;57.92;34.13;;;5.90;99.90;;;;;;5106798;27;20054;-67
2022/11/14 03:51:30;;;;;;;58.22;33.65;;;5.90;99.90;;;;;;5113752;27;20081;-68
2022/11/14 03:53:56;;;;;;;57.30;32.20;;;5.90;99.90;;;;;;5108677;27;20043;-67
2022/11/14 03:56:22;;;;;;;60.17;33.28;;;5.80;99.90;;;;;;5108449;27;20648;-68
2022/11/14 03:58:47;;;;;;;57.08;32.88;;;5.80;99.90;;;;;;5108765;27;20128;-67
2022/11/14 04:01:13;;;;;;;60.58;33.97;;;5.80;99.90;;;;;;5112915;27;20397;-68
2022/11/14 04:03:39;;;;;;;59.47;33.92;;;5.80;99.90;;;;;;5111710;27;20083;-67
2022/11/14 04:06:04;;;;;;;62.60;34.92;;;5.80;99.90;;;;;;5094886;27;20039;-67
2022/11/14 04:08:31;;;;;;;61.38;33.42;;;5.80;99.90;;;;;;5112026;27;20047;-67
2022/11/14 04:10:56;;;;;;;63.33;33.90;;;5.80;99.90;;;;;;5110567;27;20070;-67
2022/11/14 04:13:22;;;;;;;60.45;33.15;;;5.80;99.90;;;;;;5107581;27;20067;-68
2022/11/14 04:15:57;;;;;;;60.15;33.13;;;5.80;99.90;;;;;;5112460;27;20152;-67
2022/11/14 04:18:23;;;;;;;64.45;34.25;;;5.80;99.90;;;;;;5090007;27;20505;-67
2022/11/14 04:20:49;;;;;;;59.75;34.55;;;5.80;99.90;;;;;;5111123;27;20516;-68
2022/11/14 04:23:15;;;;;;;55.67;31.85;;;5.80;99.90;;;;;;5111982;27;20043;-67
2022/11/14 04:25:44;;;;;;;55.58;32.50;;;5.80;99.90;;;;;;5112509;27;20042;-67
2022/11/14 04:28:10;;;;;;;55.60;32.72;;;5.70;99.90;;;;;;5103287;27;20050;-67
2022/11/14 04:30:35;;;;;;;59.70;32.95;;;5.70;99.90;;;;;;5108873;27;20046;-67
2022/11/14 04:33:01;;;;;;;57.25;31.73;;;5.70;99.90;;;;;;5110246;27;20405;-67
2022/11/14 04:35:27;;;;;;;62.28;33.15;;;5.70;99.90;;;;;;5109216;27;20034;-67
2022/11/14 04:37:52;;;;;;;61.25;34.20;;;5.80;99.90;;;;;;5088808;27;20213;-67
2022/11/14 04:40:18;;;;;;;63.30;34.58;;;5.70;99.90;;;;;;5103675;27;20114;-67
2022/11/14 04:42:43;;;;;;;57.28;32.30;;;5.80;99.90;;;;;;5099166;27;20048;-67
2022/11/14 04:45:09;;;;;;;56.45;32.65;;;5.70;99.90;;;;;;5097930;27;20107;-67
2022/11/14 04:47:35;;;;;;;57.47;32.72;;;5.70;99.90;;;;;;5107473;27;20041;-67
2022/11/14 04:50:01;;;;;;;55.30;32.60;;;5.80;99.90;;;;;;5105173;27;20043;-67
2022/11/14 04:52:27;;;;;;;59.47;32.00;;;5.80;99.90;;;;;;5112635;27;20069;-68
2022/11/14 04:54:52;;;;;;;57.42;33.42;;;5.80;99.90;;;;;;5109945;27;20039;-67
2022/11/14 04:57:18;;;;;;;57.42;32.10;;;5.80;99.90;;;;;;5110529;27;20047;-67
2022/11/14 04:59:43;;;;;;;59.95;33.65;;;5.80;99.90;;;;;;5106517;27;20043;-67
2022/11/14 05:02:09;;;;;;;58.85;32.55;;;5.70;99.90;;;;;;5092824;28;20050;-67
2022/11/14 05:04:35;;;;;;;59.13;32.13;;;5.80;99.90;;;;;;5093675;28;20035;-67
2022/11/14 05:07:00;;;;;;;55.45;32.85;;;5.70;99.90;;;;;;5094936;28;20122;-67
2022/11/14 05:09:26;;;;;;;62.67;33.55;;;5.70;99.90;;;;;;5110094;28;20119;-68
2022/11/14 05:11:51;;;;;;;56.00;31.58;;;5.70;99.90;;;;;;5111100;28;20043;-67
2022/11/14 05:14:17;;;;;;;56.03;31.88;;;5.70;99.90;;;;;;5108338;28;20150;-67
2022/11/14 05:16:43;;;;;;;56.72;33.00;;;5.80;99.90;;;;;;5106145;27;20059;-67
2022/11/14 05:19:08;;;;;;;60.85;33.03;;;5.80;99.90;;;;;;5087600;28;20118;-67
2022/11/14 05:21:34;;;;;;;56.58;33.45;;;5.80;99.90;;;;;;5092274;28;20551;-67
2022/11/14 05:23:59;;;;;;;56.30;32.90;;;5.80;99.90;;;;;;5111834;27;20040;-68
2022/11/14 05:26:25;;;;;;;59.60;33.25;;;5.80;99.90;;;;;;5086158;28;20085;-68
2022/11/14 05:28:51;;;;;;;59.88;33.63;;;5.80;99.90;;;;;;5107713;28;20523;-67
2022/11/14 05:31:16;;;;;;;59.45;34.00;;;5.80;99.90;;;;;;5111052;28;20442;-68
2022/11/14 05:33:43;;;;;;;58.17;31.75;;;5.80;99.90;;;;;;5111554;28;20074;-67
2022/11/14 05:36:11;;;;;;;58.88;32.78;;;5.80;99.90;;;;;;5111125;28;20038;-67
2022/11/14 05:38:37;;;;;;;59.60;33.60;;;5.80;99.90;;;;;;5109583;27;20378;-67
2022/11/14 05:41:07;;;;;;;59.30;33.03;;;5.80;99.90;;;;;;5112018;27;20049;-68
2022/11/14 05:43:34;;;;;;;55.15;32.50;;;5.80;99.90;;;;;;5106522;27;20493;-67
2022/11/14 05:46:05;;;;;;;56.58;32.08;;;5.80;99.90;;;;;;5110640;27;20514;-67
2022/11/14 05:48:31;;;;;;;56.47;33.03;;;5.70;99.90;;;;;;5111845;27;20035;-68
2022/11/14 05:50:58;;;;;;;55.00;31.00;;;5.70;99.90;;;;;;5113889;27;20066;-68
2022/11/14 05:53:26;;;;;;;59.42;33.90;;;5.70;99.90;;;;;;5115147;27;20047;-67
2022/11/14 05:55:52;;;;;;;57.25;33.25;;;5.80;99.90;;;;;;5114722;27;20035;-67
2022/11/14 05:58:18;;;;;;;59.47;32.30;;;5.80;99.90;;;;;;5111965;27;20057;-68
2022/11/14 06:00:43;;;;;;;59.28;33.58;;;5.80;99.90;;;;;;5111869;27;20035;-68
2022/11/14 06:03:09;;;;;;;62.15;33.72;;;5.80;99.90;;;;;;5114898;27;20069;-68
2022/11/14 06:05:36;;;;;;;61.72;34.25;;;5.80;99.90;;;;;;5097797;27;20039;-67
2022/11/14 06:08:02;;;;;;;58.75;33.38;;;5.80;99.90;;;;;;5112657;27;20043;-67
2022/11/14 06:10:28;;;;;;;55.50;31.63;;;5.80;99.90;;;;;;5103937;27;20047;-67
2022/11/14 06:12:54;;;;;;;61.08;32.60;;;5.80;99.90;;;;;;5113161;27;20098;-67
2022/11/14 06:15:19;;;;;;;56.50;31.73;;;5.80;99.90;;;;;;5113354;27;20401;-68
2022/11/14 06:17:45;;;;;;;57.83;32.95;;;5.80;99.90;;;;;;5108300;27;20442;-67
2022/11/14 06:20:12;;;;;;;58.70;33.58;;;5.80;99.90;;;;;;5112097;27;20042;-67
2022/11/14 06:22:41;;;;;;;61.60;34.00;;;5.80;99.90;;;;;;5113524;27;20062;-67
2022/11/14 06:25:08;;;;;;;62.08;34.50;;;5.80;99.90;;;;;;5113463;27;20088;-67
2022/11/14 06:27:33;;;;;;;58.97;34.53;;;5.80;99.90;;;;;;5109736;27;20050;-67
2022/11/14 06:29:59;;;;;;;61.50;34.83;;;5.80;99.90;;;;;;5111355;27;20039;-67
2022/11/14 06:32:25;;;;;;;61.80;34.17;;;5.80;99.90;;;;;;5110177;27;20500;-68
2022/11/14 06:34:50;;;;;;;62.28;35.38;;;5.70;99.90;;;;;;5112185;27;20042;-67
2022/11/14 06:37:16;;;;;;;65.38;34.90;;;5.80;99.90;;;;;;5110652;27;20108;-67
2022/11/14 06:39:41;;;;;;;61.13;34.30;;;5.80;99.90;;;;;;5104130;27;20111;-68
2022/11/14 06:42:07;;;;;;;63.55;34.28;;;5.70;99.90;;;;;;5113794;27;20502;-67
2022/11/14 06:44:33;;;;;;;59.15;32.25;;;5.80;99.90;;;;;;5097610;27;20039;-67
2022/11/14 06:46:58;;;;;;;64.70;34.65;;;5.70;99.90;;;;;;5115136;27;20042;-65
2022/11/14 06:49:24;;;;;;;63.47;35.38;;;5.80;99.90;;;;;;5114267;27;20413;-65
2022/11/14 06:51:50;;;;;;;61.92;34.08;;;5.80;99.90;;;;;;5115322;27;20492;-65
2022/11/14 06:54:16;;;;;;;62.65;34.20;;;5.80;99.90;;;;;;5113530;27;20092;-66
2022/11/14 06:56:42;;;;;;;62.00;34.95;;;5.80;99.90;;;;;;5113934;27;20435;-67
2022/11/14 06:59:08;;;;;;;61.80;33.97;;;5.70;99.90;;;;;;5114273;27;20035;-66
2022/11/14 07:01:33;;;;;;;66.28;35.00;;;5.70;99.90;;;;;;5114247;27;20046;-67
2022/11/14 07:04:01;;;;;;;63.03;34.97;;;5.70;99.90;;;;;;5112276;27;20027;-66
2022/11/14 07:06:28;;;;;;;65.35;34.47;;;5.70;99.90;;;;;;5110983;27;20052;-66
2022/11/14 07:08:55;;;;;;;59.17;33.20;;;5.70;99.90;;;;;;5113468;27;20054;-67
2022/11/14 07:11:28;;;;;;;61.70;32.33;;;5.70;99.90;;;;;;5113148;27;20043;-66
2022/11/14 07:13:58;;;;;;;66.35;33.35;;;5.70;99.90;;;;;;5092136;27;20039;-66
2022/11/14 07:16:29;;;;;;;64.13;32.75;;;5.60;99.90;;;;;;5112285;27;20043;-67
2022/11/14 07:18:55;;;;;;;61.00;31.80;;;5.60;99.90;;;;;;5095996;27;20126;-67
2022/11/14 07:21:22;;;;;;;60.67;33.13;;;5.60;99.90;;;;;;5113885;27;20134;-66
2022/11/14 07:23:47;;;;;;;56.75;32.50;;;5.60;99.90;;;;;;5108312;27;20074;-66
2022/11/14 07:26:13;;;;;;;61.10;32.38;;;5.60;99.90;;;;;;5098495;27;20073;-67
2022/11/14 07:28:41;;;;;;;56.30;31.20;;;5.60;99.90;;;;;;5114373;27;20043;-66
2022/11/14 07:31:08;;;;;;;56.35;31.23;;;5.60;99.90;;;;;;5112883;27;20039;-66
2022/11/14 07:33:34;;;;;;;60.50;32.10;;;5.60;99.90;;;;;;5114116;27;20525;-66
2022/11/14 07:36:00;;;;;;;60.00;31.42;;;5.60;99.90;;;;;;5107938;27;20039;-67
2022/11/14 07:38:26;;;;;;;59.25;31.50;;;5.50;99.90;;;;;;5114135;27;20549;-66
2022/11/14 07:40:56;;;;;;;60.35;31.77;;;5.60;99.90;;;;;;5111284;27;20047;-67
2022/11/14 07:43:22;;;;;;;58.83;32.50;;;5.60;99.90;;;;;;5113999;27;20099;-66
2022/11/14 07:45:48;;;;;;;55.28;31.50;;;5.60;99.90;;;;;;5110374;27;20031;-67
2022/11/14 07:48:15;;;;;;;60.17;32.38;;;5.60;99.90;;;;;;5113003;27;20035;-66
2022/11/14 07:50:41;;;;;;;58.13;30.42;;;5.60;99.90;;;;;;5112666;27;20070;-66
2022/11/14 07:53:07;;;;;;;60.90;32.67;;;5.60;99.90;;;;;;5111846;27;20075;-66
2022/11/14 07:55:35;;;;;;;59.13;31.70;;;5.60;99.90;;;;;;5111928;27;20039;-67
2022/11/14 07:58:01;;;;;;;58.35;32.47;;;5.60;99.90;;;;;;5105158;27;20462;-67
2022/11/14 08:00:26;;;;;;;56.30;31.77;;;5.70;99.90;;;;;;5112413;27;20034;-67
2022/11/14 08:02:52;;;;;;;54.63;31.65;;;5.70;99.90;;;;;;5109931;27;20043;-67
2022/11/14 08:05:18;;;;;;;57.47;30.90;;;5.70;99.90;;;;;;5113205;27;20039;-66
2022/11/14 08:07:43;;;;;;;59.88;32.25;;;5.80;99.90;;;;;;5109147;27;20035;-66
2022/11/14 08:10:10;;;;;;;60.63;33.22;;;5.80;99.90;;;;;;5113320;27;20386;-67
2022/11/14 08:12:40;;;;;;;57.30;31.92;;;5.80;99.90;;;;;;5108726;27;20043;-67
2022/11/14 08:15:07;;;;;;;55.85;31.55;;;5.80;99.90;;;;;;5112831;27;20095;-66
2022/11/14 08:17:33;;;;;;;61.72;31.80;;;5.80;99.90;;;;;;5094640;27;20051;-67
2022/11/14 08:19:58;;;;;;;55.13;30.77;;;5.80;99.90;;;;;;5111407;27;20540;-67
2022/11/14 08:22:24;;;;;;;59.00;31.75;;;5.90;99.90;;;;;;5112967;27;20042;-66
2022/11/14 08:24:50;;;;;;;62.70;32.45;;;5.90;99.90;;;;;;5111040;27;20151;-66
2022/11/14 08:27:15;;;;;;;60.72;31.80;;;5.90;99.90;;;;;;5112894;27;20070;-67
2022/11/14 08:29:41;;;;;;;61.78;32.83;;;5.90;99.90;;;;;;5109853;27;20050;-67
2022/11/14 08:32:07;;;;;;;58.17;32.00;;;6.00;99.90;;;;;;5110741;27;20062;-66
2022/11/14 08:34:32;;;;;;;58.40;33.08;;;6.00;99.90;;;;;;5095735;27;20440;-67
2022/11/14 08:36:58;;;;;;;61.38;33.05;;;6.00;99.90;;;;;;5113001;27;20035;-66
2022/11/14 08:39:23;;;;;;;59.10;31.83;;;6.10;99.90;;;;;;5112119;27;20043;-66
2022/11/14 08:41:49;;;;;;;57.90;32.15;;;6.10;99.90;;;;;;5112859;27;20058;-67
2022/11/14 08:44:15;;;;;;;58.65;32.65;;;6.20;99.90;;;;;;5113266;27;20041;-66
2022/11/14 08:46:40;;;;;;;58.30;31.52;;;6.30;99.90;;;;;;5113153;27;20383;-67
2022/11/14 08:49:06;;;;;;;60.08;32.10;;;6.30;99.90;;;;;;5112864;27;20043;-66
2022/11/14 08:51:31;;;;;;;57.15;31.08;;;6.30;99.90;;;;;;5112649;28;20116;-66
2022/11/14 08:53:57;;;;;;;57.45;31.38;;;6.40;99.90;;;;;;5112959;28;20401;-66
2022/11/14 08:56:23;;;;;;;55.88;30.85;;;6.50;99.90;;;;;;5109676;28;20410;-66
2022/11/14 08:58:48;;;;;;;52.40;30.33;;;6.50;99.90;;;;;;5111561;27;20047;-66
2022/11/14 09:01:14;;;;;;;54.78;30.33;;;6.50;99.90;;;;;;5112903;27;20135;-67
2022/11/14 09:03:39;;;;;;;56.88;29.70;;;6.60;99.90;;;;;;5112661;27;20059;-66
2022/11/14 09:06:05;;;;;;;58.63;30.55;;;6.60;99.90;;;;;;5112311;28;21030;-66
2022/11/14 09:08:31;;;;;;;52.38;29.25;;;6.60;99.90;;;;;;5112814;28;20035;-67
2022/11/14 09:11:00;;;;;;;52.13;30.65;;;6.70;99.90;;;;;;5112630;28;20034;-67
2022/11/14 09:13:26;;;;;;;51.90;29.80;;;6.80;99.90;;;;;;5115512;27;20050;-67
2022/11/14 09:15:52;;;;;;;52.42;29.88;;;7.00;99.90;;;;;;5099778;27;20043;-67
2022/11/14 09:18:17;;;;;;;56.00;29.42;;;7.20;99.90;;;;;;5117097;27;20035;-66
2022/11/14 09:20:43;;;;;;;51.17;29.20;;;7.30;99.90;;;;;;5100174;27;20140;-66
2022/11/14 09:23:09;;;;;;;48.30;28.38;;;7.50;99.90;;;;;;5099698;27;20092;-67
2022/11/14 09:25:35;;;;;;;50.92;28.67;;;7.60;99.90;;;;;;5116749;27;20058;-66
2022/11/14 09:28:06;;;;;;;47.58;28.38;;;7.70;99.90;;;;;;5098977;27;20035;-66
2022/11/14 09:30:32;;;;;;;46.35;28.23;;;7.80;99.90;;;;;;5099797;27;20566;-67
2022/11/14 09:33:03;;;;;;;44.20;26.83;;;7.90;99.90;;;;;;5116676;27;20129;-67
2022/11/14 09:35:30;;;;;;;44.72;26.23;;;7.90;99.90;;;;;;5099342;27;20047;-66
2022/11/14 09:38:06;;;;;;;45.10;27.67;;;8.10;99.90;;;;;;5134866;27;20047;-66
2022/11/14 09:41:00;;;;;;;47.33;26.77;;;8.20;99.90;;;;;;5116944;27;20043;-66
2022/11/14 09:43:38;;;;;;;44.92;26.05;;;8.30;99.90;;;;;;5116121;27;20100;-66
2022/11/14 09:46:36;;;;;;;41.63;25.45;;;8.40;99.90;;;;;;5116579;27;20041;-66
2022/11/14 09:49:02;;;;;;;42.10;24.98;;;8.60;99.90;;;;;;5116841;27;20039;-66
2022/11/14 09:51:35;;;;;;;40.83;25.15;;;8.70;99.90;;;;;;5112123;27;20130;-66
2022/11/14 09:54:17;;;;;;;43.90;25.70;;;8.80;99.90;;;;;;5112713;27;20397;-67
2022/11/14 09:56:43;;;;;;;42.13;25.00;;;9.00;99.90;;;;;;5116216;27;20508;-66
2022/11/14 09:59:13;;;;;;;41.53;25.40;;;9.20;99.90;;;;;;5113336;27;20047;-66
2022/11/14 10:02:13;;;;;;;40.83;24.65;;;9.40;99.90;;;;;;5116489;27;20038;-66
2022/11/14 10:04:46;;;;;;;44.40;26.45;;;9.50;99.90;;;;;;5095396;27;20038;-67
2022/11/14 10:07:20;;;;;;;42.42;24.65;;;9.60;99.90;;;;;;5114436;27;20035;-67
2022/11/14 10:09:58;;;;;;;41.30;24.25;;;9.60;99.90;;;;;;5113466;27;20035;-66
2022/11/14 10:12:42;;;;;;;38.25;23.65;;;9.80;99.90;;;;;;5115692;27;20051;-66
2022/11/14 10:15:17;;;;;;;42.60;25.25;;;9.90;99.90;;;;;;5115959;27;20083;-67
2022/11/14 10:17:49;;;;;;;37.67;24.75;;;10.10;99.90;;;;;;5114995;27;20035;-68
2022/11/14 10:20:46;;;;;;;36.63;24.00;;;10.20;99.90;;;;;;5115327;27;20078;-66
2022/11/14 10:23:12;;;;;;;35.15;22.88;;;10.40;99.90;;;;;;5114211;27;20284;-66
2022/11/14 10:25:56;;;;;;;41.08;24.52;;;10.50;99.90;;;;;;5115282;27;20038;-67
2022/11/14 10:28:46;;;;;;;36.35;23.10;;;10.60;99.90;;;;;;5098145;27;20474;-66
2022/11/14 10:31:21;;;;;;;35.42;23.30;;;10.80;99.90;;;;;;5115433;27;20042;-66
2022/11/14 10:33:52;;;;;;;36.63;22.85;;;10.90;99.90;;;;;;5115870;27;20053;-66
2022/11/14 10:36:40;;;;;;;34.50;22.05;;;11.00;99.90;;;;;;5115953;27;20390;-67
2022/11/14 10:39:33;;;;;;;37.35;22.58;;;11.00;99.90;;;;;;5115031;27;20378;-66
2022/11/14 10:42:06;;;;;;;33.33;23.00;;;11.10;99.90;;;;;;5114928;27;20051;-67
2022/11/14 10:44:41;;;;;;;36.67;22.77;;;10.90;99.90;;;;;;5115627;27;20482;-68
2022/11/14 10:47:13;;;;;;;35.83;22.70;;;11.10;99.90;;;;;;5115361;27;20062;-66
2022/11/14 10:49:39;;;;;;;36.20;23.02;;;11.30;99.90;;;;;;5114714;27;20115;-67
2022/11/14 10:52:20;;;;;;;33.83;22.02;;;11.40;99.90;;;;;;5115025;27;20039;-67
2022/11/14 10:55:05;;;;;;;37.65;24.17;;;11.40;99.90;;;;;;5114606;27;20509;-67
2022/11/14 10:57:31;;;;;;;45.72;29.50;;;11.40;99.90;;;;;;5098325;27;20493;-67
2022/11/14 10:59:57;;;;;;;37.60;23.42;;;11.40;99.90;;;;;;5114696;27;20081;-68
2022/11/14 11:02:23;;;;;;;35.78;23.60;;;11.40;99.90;;;;;;5115145;27;20039;-68
2022/11/14 11:04:48;;;;;;;34.03;22.55;;;11.50;99.90;;;;;;5115315;27;20027;-66
2022/11/14 11:13:08;;;;;;;32.50;22.23;;;11.10;99.90;;;;;;5114032;27;20074;-67
2022/11/14 11:15:41;;;;;;;32.85;22.30;;;11.00;99.90;;;;;;5097323;27;20661;-67
2022/11/14 11:18:39;;;;;;;34.30;22.33;;;10.90;99.90;;;;;;5114476;27;20409;-66
2022/11/14 11:21:09;;;;;;;33.78;22.65;;;10.70;99.90;;;;;;5012648;28;20442;-67
2022/11/14 11:23:36;;;;;;;35.05;24.08;;;10.70;99.90;;;;;;5012669;28;20061;-67
2022/11/14 11:26:17;;;;;;;33.88;22.58;;;10.60;99.90;;;;;;4996543;28;20034;-67
2022/11/14 11:29:05;;;;;;;33.20;22.00;;;10.60;99.90;;;;;;5012790;28;20042;-67
2022/11/14 11:31:46;;;;;;;31.33;21.42;;;10.70;99.90;;;;;;4996045;28;20103;-66
2022/11/14 11:34:12;;;;;;;34.22;23.42;;;10.40;99.90;;;;;;5012738;28;20077;-66
2022/11/14 11:36:46;;;;;;;33.53;22.90;;;10.30;99.90;;;;;;5013069;28;20081;-67
2022/11/14 11:39:25;;;;;;;35.03;22.95;;;10.30;99.90;;;;;;5012787;28;20397;-66
2022/11/14 11:41:53;;;;;;;29.70;21.33;;;10.30;99.90;;;;;;4996029;28;20566;-66
2022/11/14 11:44:21;;;;;;;31.40;21.00;;;10.40;99.90;;;;;;5025861;28;20080;-67
2022/11/14 11:47:01;;;;;;;35.28;22.10;;;11.00;99.90;;;;;;5011933;28;20071;-66
2022/11/14 11:49:29;;;;;;;32.72;21.88;;;10.90;99.90;;;;;;5011650;28;20089;-66
2022/11/14 11:52:01;;;;;;;33.67;21.85;;;10.70;99.90;;;;;;5012216;28;20047;-66
2022/11/14 11:54:35;;;;;;;30.65;21.30;;;10.60;99.90;;;;;;5010874;28;20532;-67
2022/11/14 11:57:08;;;;;;;32.53;21.08;;;10.70;99.90;;;;;;5091203;27;20054;-68
2022/11/14 11:59:36;;;;;;;33.67;21.85;;;11.00;99.90;;;;;;5110065;28;20450;-66
2022/11/14 12:02:26;;;;;;;31.58;21.42;;;11.30;99.90;;;;;;5108197;28;20032;-67
2022/11/14 12:04:54;;;;;;;32.00;21.42;;;11.30;99.90;;;;;;5107066;28;20042;-66
2022/11/14 12:07:35;;;;;;;33.50;21.55;;;11.30;99.90;;;;;;5108906;28;20031;-66
2022/11/14 12:10:13;;;;;;;29.25;19.92;;;11.60;99.90;;;;;;5108812;28;20460;-67
2022/11/14 12:12:44;;;;;;;27.65;19.70;;;11.80;99.90;;;;;;5108010;28;20065;-67
2022/11/14 12:15:24;;;;;;;28.03;18.97;;;11.70;99.90;;;;;;5090383;28;20054;-67
2022/11/14 12:18:26;;;;;;;30.20;20.65;;;11.50;99.90;;;;;;5120980;27;20294;-66
2022/11/14 12:21:24;;;;;;;30.88;19.42;;;11.70;99.90;;;;;;5105900;28;20050;-66
2022/11/14 12:24:18;;;;;;;25.10;17.50;;;11.40;99.90;;;;;;5108748;28;20458;-68
2022/11/14 12:26:47;;;;;;;27.23;18.20;;;11.50;99.90;;;;;;5108579;28;20044;-67
2022/11/14 12:29:25;;;;;;;28.27;17.98;;;11.30;99.90;;;;;;5107812;28;20039;-66
2022/11/14 12:32:03;;;;;;;26.08;18.63;;;11.30;99.90;;;;;;5109507;28;20553;-67
2022/11/14 12:34:31;;;;;;;26.42;18.10;;;11.20;99.90;;;;;;5109585;28;20077;-67
2022/11/14 12:36:57;;;;;;;25.70;17.77;;;11.10;99.90;;;;;;5109632;28;20071;-67
2022/11/14 12:39:29;;;;;;;24.77;17.20;;;11.10;99.90;;;;;;5109379;28;20047;-67
2022/11/14 12:42:04;;;;;;;24.00;17.20;;;11.00;99.90;;;;;;5087974;28;20123;-66
2022/11/14 12:44:29;;;;;;;26.10;17.63;;;11.10;99.90;;;;;;5103139;28;20043;-66
2022/11/14 12:47:04;;;;;;;27.40;17.80;;;10.90;99.90;;;;;;5108490;28;20031;-66
2022/11/14 12:50:29;;;;;;;25.85;16.75;;;11.60;99.90;;;;;;5091961;28;20130;-67